createdAt,value
2019-03-23T00:02:20.203Z,52.30
2019-03-23T00:04:53.516Z,53.00
2019-03-23T00:07:26.182Z,56.10
2019-03-23T00:09:58.796Z,58.30
2019-03-23T00:12:32.448Z,56.20
2019-03-23T00:15:05.470Z,53.30
2019-03-23T00:17:37.570Z,54.40
2019-03-23T00:20:14.100Z,53.50
2019-03-23T00:22:46.026Z,55.20
2019-03-23T00:25:18.088Z,56.70
2019-03-23T00:27:50.233Z,55.50
2019-03-23T00:30:23.258Z,55.70
2019-03-23T00:33:03.600Z,55.10
2019-03-23T00:35:36.420Z,55.70
2019-03-23T00:38:08.581Z,56.50
2019-03-23T00:40:41.490Z,57.30
2019-03-23T00:43:15.714Z,55.70
2019-03-23T00:45:47.886Z,54.70
2019-03-23T00:48:20.546Z,54.50
2019-03-23T00:50:58.912Z,55.10
2019-03-23T00:53:34.046Z,54.70
2019-03-23T00:56:06.490Z,54.10
2019-03-23T00:58:38.557Z,53.60
2019-03-23T01:01:11.780Z,53.00
2019-03-23T01:03:43.933Z,52.40
2019-03-23T01:06:17.066Z,51.70
2019-03-23T01:08:53.237Z,51.20
2019-03-23T01:11:25.576Z,50.70
2019-03-23T01:13:59.428Z,50.30
2019-03-23T01:16:43.121Z,49.50
2019-03-23T01:19:20.061Z,49.50
2019-03-23T01:21:57.496Z,49.20
2019-03-23T01:24:35.559Z,48.90
2019-03-23T01:27:19.719Z,48.60
2019-03-23T01:29:57.728Z,48.30
2019-03-23T01:32:33.029Z,48.00
2019-03-23T01:35:07.873Z,47.90
2019-03-23T01:37:40.124Z,47.60
2019-03-23T01:40:18.338Z,47.30
2019-03-23T01:42:53.906Z,47.20
2019-03-23T01:45:28.295Z,46.80
2019-03-23T01:48:04.616Z,46.90
2019-03-23T01:50:46.956Z,46.80
2019-03-23T01:56:28.324Z,46.50
2019-03-23T02:02:05.457Z,46.20
2019-03-23T02:04:57.793Z,46.00
2019-03-23T02:07:35.104Z,45.80
2019-03-23T02:10:24.593Z,45.70
2019-03-23T02:13:02.612Z,45.20
2019-03-23T02:15:36.463Z,45.10
2019-03-23T02:18:13.684Z,45.20
2019-03-23T02:20:53.659Z,44.70
2019-03-23T02:23:27.548Z,44.70
2019-03-23T02:26:07.030Z,44.30
2019-03-23T02:28:49.688Z,43.40
2019-03-23T02:31:25.654Z,43.80
2019-03-23T02:34:00.959Z,43.40
2019-03-23T02:36:47.139Z,43.80
2019-03-23T02:39:33.953Z,43.10
2019-03-23T02:42:16.645Z,43.60
2019-03-23T02:44:54.799Z,42.80
2019-03-23T02:47:39.828Z,42.20
2019-03-23T02:53:14.823Z,41.20
2019-03-23T02:55:54.342Z,40.90
2019-03-23T02:58:42.383Z,41.20
2019-03-23T03:01:29.589Z,40.40
2019-03-23T03:04:17.970Z,38.60
2019-03-23T03:06:48.001Z,38.40
2019-03-23T03:09:30.947Z,39.10
2019-03-23T03:12:09.294Z,40.20
2019-03-23T03:14:41.891Z,38.90
2019-03-23T03:17:17.769Z,39.40
2019-03-23T03:19:50.053Z,37.50
2019-03-23T03:25:31.903Z,39.70
2019-03-23T03:30:56.191Z,38.00
2019-03-23T03:33:34.265Z,37.80
2019-03-23T03:36:05.786Z,37.30
2019-03-23T03:38:39.027Z,35.60
2019-03-23T03:41:11.916Z,33.80
2019-03-23T03:43:48.009Z,31.00
2019-03-23T03:46:24.174Z,34.50
2019-03-23T03:49:12.366Z,35.20
2019-03-23T03:51:37.011Z,35.70
2019-03-23T03:57:06.435Z,34.10
2019-03-23T03:59:37.713Z,35.10
2019-03-23T04:02:08.859Z,34.40
2019-03-23T04:04:41.169Z,32.90
2019-03-23T04:07:12.156Z,35.50
2019-03-23T04:09:43.864Z,32.10
2019-03-23T04:12:28.398Z,31.00
2019-03-23T04:18:02.040Z,30.70
2019-03-23T04:20:34.611Z,34.40
2019-03-23T04:23:06.305Z,34.00
2019-03-23T04:25:40.282Z,33.20
2019-03-23T04:28:16.126Z,33.60
2019-03-23T04:30:47.260Z,33.80
2019-03-23T04:33:19.397Z,34.20
2019-03-23T04:35:50.896Z,32.60
2019-03-23T04:38:23.750Z,33.20
2019-03-23T04:40:54.645Z,33.80
2019-03-23T04:43:25.712Z,32.20
2019-03-23T04:45:56.941Z,31.70
2019-03-23T04:48:30.436Z,32.10
2019-03-23T04:51:01.623Z,31.30
2019-03-23T04:53:32.545Z,30.10
2019-03-23T04:56:03.638Z,31.70
2019-03-23T04:58:35.035Z,32.60
2019-03-23T05:01:07.406Z,32.50
2019-03-23T05:03:38.569Z,29.30
2019-03-23T05:06:11.149Z,31.90
2019-03-23T05:08:42.373Z,31.40
2019-03-23T05:11:13.249Z,33.30
2019-03-23T05:13:47.595Z,29.60
2019-03-23T05:16:18.863Z,28.40
2019-03-23T05:18:57.111Z,32.20
2019-03-23T05:24:50.745Z,30.70
2019-03-23T05:27:22.267Z,29.60
2019-03-23T05:29:53.447Z,30.40
2019-03-23T05:32:24.359Z,29.60
2019-03-23T05:34:58.112Z,29.30
2019-03-23T05:37:28.628Z,25.40
2019-03-23T05:40:00.341Z,29.50
2019-03-23T05:42:32.451Z,26.70
2019-03-23T05:45:12.837Z,25.40
2019-03-23T05:47:43.075Z,28.20
2019-03-23T05:50:14.921Z,28.10
2019-03-23T05:52:46.177Z,28.10
2019-03-23T05:55:21.706Z,26.90
2019-03-23T05:57:52.622Z,28.40
2019-03-23T06:00:26.445Z,28.20
2019-03-23T06:02:57.701Z,27.90
2019-03-23T06:05:28.450Z,28.80
2019-03-23T06:07:59.931Z,28.00
2019-03-23T06:10:31.060Z,28.80
2019-03-23T06:13:02.168Z,28.80
2019-03-23T06:15:34.505Z,29.00
2019-03-23T06:18:06.876Z,27.80
2019-03-23T06:20:38.227Z,28.30
2019-03-23T06:23:09.090Z,29.00
2019-03-23T06:25:40.806Z,22.80
2019-03-23T06:28:12.074Z,24.40
2019-03-23T06:30:43.267Z,26.60
2019-03-23T06:33:15.269Z,26.10
2019-03-23T06:35:46.967Z,25.70
2019-03-23T06:38:18.051Z,26.30
2019-03-23T06:40:50.269Z,26.70
2019-03-23T06:43:21.098Z,27.50
2019-03-23T06:45:52.205Z,28.10
2019-03-23T06:48:22.926Z,26.10
2019-03-23T06:50:53.986Z,26.40
2019-03-23T06:53:25.169Z,26.60
2019-03-23T06:55:57.268Z,28.20
2019-03-23T06:58:34.198Z,24.30
2019-03-23T07:01:08.388Z,24.70
2019-03-23T07:03:42.434Z,25.30
2019-03-23T07:06:14.433Z,26.30
2019-03-23T07:08:49.190Z,26.60
2019-03-23T07:11:20.477Z,25.10
2019-03-23T07:13:51.742Z,24.70
2019-03-23T07:16:25.094Z,24.00
2019-03-23T07:18:57.403Z,25.40
2019-03-23T07:21:29.008Z,24.20
2019-03-23T07:24:07.843Z,25.70
2019-03-23T07:26:41.802Z,26.30
2019-03-23T07:29:17.969Z,24.90
2019-03-23T07:31:48.961Z,25.30
2019-03-23T07:34:21.315Z,24.50
2019-03-23T07:36:52.348Z,26.90
2019-03-23T07:39:28.104Z,23.00
2019-03-23T07:41:58.266Z,25.30
2019-03-23T07:44:29.265Z,25.00
2019-03-23T07:47:00.856Z,21.50
2019-03-23T07:49:32.157Z,23.20
2019-03-23T07:52:14.816Z,24.70
2019-03-23T07:54:46.348Z,25.70
2019-03-23T07:57:17.544Z,26.30
2019-03-23T07:59:48.834Z,25.60
2019-03-23T08:02:20.046Z,25.20
2019-03-23T08:04:52.977Z,22.10
2019-03-23T08:07:27.256Z,22.50
2019-03-23T08:10:02.388Z,23.40
2019-03-23T08:12:35.159Z,23.50
2019-03-23T08:15:11.167Z,24.10
2019-03-23T08:17:46.198Z,22.40
2019-03-23T08:20:16.637Z,24.10
2019-03-23T08:22:48.332Z,24.30
2019-03-23T08:25:23.158Z,24.90
2019-03-23T08:27:55.676Z,24.90
2019-03-23T08:30:36.456Z,24.50
2019-03-23T08:33:09.521Z,25.70
2019-03-23T08:35:41.131Z,24.90
2019-03-23T08:38:12.381Z,25.10
2019-03-23T08:40:43.567Z,25.60
2019-03-23T08:43:20.159Z,24.60
2019-03-23T08:45:54.875Z,24.90
2019-03-23T08:48:29.221Z,25.50
2019-03-23T08:51:03.600Z,25.40
2019-03-23T08:53:36.286Z,24.80
2019-03-23T08:56:07.552Z,25.40
2019-03-23T08:58:38.566Z,24.60
2019-03-23T09:01:12.118Z,24.60
2019-03-23T09:03:52.088Z,25.20
2019-03-23T09:06:16.058Z,23.80
2019-03-23T09:08:50.358Z,23.40
2019-03-23T09:11:22.719Z,25.00
2019-03-23T09:13:53.776Z,24.90
2019-03-23T09:16:26.184Z,24.80
2019-03-23T09:18:57.806Z,24.60
2019-03-23T09:21:28.838Z,25.70
2019-03-23T09:24:00.509Z,24.70
2019-03-23T09:26:31.746Z,23.90
2019-03-23T09:29:09.967Z,24.50
2019-03-23T09:31:41.094Z,24.70
2019-03-23T09:34:12.187Z,25.40
2019-03-23T09:36:43.384Z,24.70
2019-03-23T09:39:14.365Z,25.30
2019-03-23T09:41:50.332Z,25.00
2019-03-23T09:44:31.634Z,23.70
2019-03-23T09:47:02.473Z,22.00
2019-03-23T09:49:33.464Z,22.20
2019-03-23T09:52:04.810Z,23.60
2019-03-23T09:54:35.819Z,24.30
2019-03-23T09:57:11.083Z,24.70
2019-03-23T09:59:42.058Z,24.40
2019-03-23T10:02:13.306Z,24.20
2019-03-23T10:11:21.071Z,23.30
2019-03-23T10:13:52.066Z,24.50
2019-03-23T10:16:24.151Z,24.80
2019-03-23T10:18:55.165Z,25.10
2019-03-23T10:21:26.137Z,25.00
2019-03-23T10:24:00.139Z,25.20
2019-03-23T10:26:31.571Z,25.30
2019-03-23T10:29:02.695Z,25.20
2019-03-23T10:31:35.307Z,25.10
2019-03-23T10:34:06.434Z,24.90
2019-03-23T10:36:38.347Z,24.50
2019-03-23T10:39:09.570Z,24.90
2019-03-23T10:41:40.526Z,24.70
2019-03-23T10:44:11.673Z,25.20
2019-03-23T10:46:43.905Z,25.00
2019-03-23T10:49:14.825Z,25.20
2019-03-23T10:51:47.428Z,25.40
2019-03-23T10:54:18.503Z,25.60
2019-03-23T10:56:49.232Z,25.60
2019-03-23T10:59:20.432Z,26.40
2019-03-23T11:01:51.542Z,26.10
2019-03-23T11:04:22.650Z,26.00
2019-03-23T11:06:55.371Z,26.00
2019-03-23T11:09:26.503Z,25.90
2019-03-23T11:11:57.300Z,25.90
2019-03-23T11:14:29.509Z,26.00
2019-03-23T11:17:00.535Z,26.50
2019-03-23T11:19:31.527Z,26.10
2019-03-23T11:22:02.512Z,26.10
2019-03-23T11:24:33.454Z,26.10
2019-03-23T11:27:04.609Z,26.40
2019-03-23T11:29:35.693Z,26.40
2019-03-23T11:32:06.970Z,26.50
2019-03-23T11:34:38.007Z,26.60
2019-03-23T11:37:09.217Z,26.50
2019-03-23T11:39:40.302Z,26.60
2019-03-23T11:42:13.266Z,26.70
2019-03-23T11:44:44.607Z,27.10
2019-03-23T11:47:15.315Z,27.30
2019-03-23T11:49:46.432Z,27.20
2019-03-23T11:52:18.319Z,27.10
2019-03-23T11:54:49.463Z,27.40
2019-03-23T11:57:20.414Z,27.70
2019-03-23T11:59:51.183Z,27.80
2019-03-23T12:02:22.282Z,27.90
2019-03-23T12:04:53.358Z,28.30
2019-03-23T12:07:24.236Z,28.10
2019-03-23T12:09:56.059Z,28.10
2019-03-23T12:12:27.925Z,28.30
2019-03-23T12:14:59.041Z,28.30
2019-03-23T12:17:30.185Z,28.10
2019-03-23T12:20:01.246Z,28.20
2019-03-23T12:22:32.591Z,28.40
2019-03-23T12:25:03.689Z,28.60
2019-03-23T12:27:34.663Z,28.60
2019-03-23T12:30:07.621Z,28.80
2019-03-23T12:32:39.006Z,28.90
2019-03-23T12:35:10.683Z,28.90
2019-03-23T12:37:41.825Z,29.00
2019-03-23T12:40:13.246Z,29.00
2019-03-23T12:42:44.091Z,29.10
2019-03-23T12:45:17.831Z,29.20
2019-03-23T12:47:48.862Z,29.80
2019-03-23T12:50:20.044Z,29.50
2019-03-23T12:52:51.062Z,29.60
2019-03-23T12:55:22.009Z,29.70
2019-03-23T12:57:52.984Z,29.80
2019-03-23T13:00:23.978Z,29.90
2019-03-23T13:02:55.162Z,30.00
2019-03-23T13:05:27.546Z,30.30
2019-03-23T13:07:58.743Z,30.60
2019-03-23T13:10:30.501Z,30.70
2019-03-23T13:13:01.478Z,30.70
2019-03-23T13:15:32.533Z,30.90
2019-03-23T13:18:03.333Z,31.00
2019-03-23T13:23:06.361Z,31.00
2019-03-23T13:25:37.686Z,31.20
2019-03-23T13:28:08.664Z,31.50
2019-03-23T13:30:39.712Z,31.50
2019-03-23T13:33:10.781Z,31.80
2019-03-23T13:35:41.899Z,32.60
2019-03-23T13:38:13.230Z,32.00
2019-03-23T13:40:43.926Z,32.10
2019-03-23T13:43:14.858Z,31.90
2019-03-23T13:45:46.027Z,31.90
2019-03-23T13:48:17.247Z,31.90
2019-03-23T13:50:48.157Z,31.90
2019-03-23T13:53:20.723Z,32.00
2019-03-23T13:55:51.653Z,32.10
2019-03-23T13:58:22.554Z,32.50
2019-03-23T14:00:53.595Z,32.10
2019-03-23T14:03:24.724Z,32.10
2019-03-23T14:05:56.707Z,32.00
2019-03-23T14:08:27.730Z,32.70
2019-03-23T14:10:58.960Z,32.00
2019-03-23T14:13:30.817Z,32.00
2019-03-23T14:16:02.757Z,32.00
2019-03-23T14:18:35.728Z,32.10
2019-03-23T14:21:06.249Z,32.10
2019-03-23T14:23:37.204Z,32.20
2019-03-23T14:26:09.378Z,32.20
2019-03-23T14:28:40.489Z,32.20
2019-03-23T14:31:11.802Z,32.30
2019-03-23T14:33:42.839Z,32.40
2019-03-23T14:36:14.868Z,32.30
2019-03-23T14:38:46.096Z,32.20
2019-03-23T14:41:17.391Z,32.20
2019-03-23T14:43:48.449Z,32.20
2019-03-23T14:46:25.233Z,32.20
2019-03-23T14:49:01.819Z,32.90
2019-03-23T14:51:29.090Z,32.80
2019-03-23T14:54:00.172Z,32.50
2019-03-23T14:56:31.702Z,32.70
2019-03-23T14:59:03.225Z,32.70
2019-03-23T15:01:34.191Z,32.90
2019-03-23T15:04:06.837Z,33.10
2019-03-23T15:06:37.896Z,33.20
2019-03-23T15:09:08.984Z,33.40
2019-03-23T15:11:40.113Z,33.50
2019-03-23T15:14:11.286Z,34.30
2019-03-23T15:16:44.574Z,34.00
2019-03-23T15:19:15.866Z,33.70
2019-03-23T15:21:46.831Z,34.10
2019-03-23T15:24:18.027Z,34.30
2019-03-23T15:26:49.294Z,34.80
2019-03-23T15:29:20.156Z,35.30
2019-03-23T15:31:51.196Z,35.50
2019-03-23T15:34:22.260Z,34.80
2019-03-23T15:36:53.292Z,34.80
2019-03-23T15:39:24.576Z,34.90
2019-03-23T15:41:55.600Z,35.30
2019-03-23T15:44:26.692Z,35.60
2019-03-23T15:46:57.843Z,35.40
2019-03-23T15:49:28.938Z,36.00
2019-03-23T15:51:59.752Z,36.30
2019-03-23T15:54:30.736Z,37.30
2019-03-23T15:57:02.673Z,36.90
2019-03-23T15:59:33.808Z,35.80
2019-03-23T16:02:04.950Z,37.50
2019-03-23T16:04:36.076Z,40.60
2019-03-23T16:07:07.474Z,40.80
2019-03-23T16:09:38.359Z,41.60
2019-03-23T16:12:09.381Z,42.50
2019-03-23T16:14:40.376Z,41.90
2019-03-23T16:17:12.548Z,42.40
2019-03-23T16:19:44.254Z,41.40
2019-03-23T16:22:15.429Z,44.60
2019-03-23T16:24:46.913Z,42.80
2019-03-23T16:27:17.967Z,40.90
2019-03-23T16:29:49.076Z,41.90
2019-03-23T16:32:20.211Z,42.80
2019-03-23T16:34:51.371Z,42.20
2019-03-23T16:37:22.616Z,43.50
2019-03-23T16:39:53.807Z,43.60
2019-03-23T16:42:24.957Z,46.30
2019-03-23T16:44:55.891Z,44.30
2019-03-23T16:47:27.236Z,42.30
2019-03-23T16:49:58.683Z,44.60
2019-03-23T16:52:29.591Z,47.90
2019-03-23T16:55:00.666Z,46.20
2019-03-23T16:57:31.683Z,47.30
2019-03-23T17:00:03.988Z,49.40
2019-03-23T17:02:34.900Z,48.40
2019-03-23T17:05:07.286Z,47.30
2019-03-23T17:07:38.394Z,49.00
2019-03-23T17:10:10.297Z,47.50
2019-03-23T17:12:41.436Z,50.00
2019-03-23T17:15:12.749Z,47.00
2019-03-23T17:17:43.689Z,46.10
2019-03-23T17:20:17.029Z,50.80
2019-03-23T17:22:47.600Z,49.90
2019-03-23T17:25:18.874Z,51.30
2019-03-23T17:27:49.762Z,50.10
2019-03-23T17:30:20.749Z,47.10
2019-03-23T17:32:51.807Z,49.10
2019-03-23T17:35:22.882Z,50.00
2019-03-23T17:37:54.179Z,48.90
2019-03-23T17:40:25.198Z,52.80
2019-03-23T17:43:05.598Z,51.20
2019-03-23T17:45:28.593Z,51.40
2019-03-23T17:47:59.699Z,50.70
2019-03-23T17:50:30.828Z,49.80
2019-03-23T17:53:02.166Z,51.40
2019-03-23T17:55:33.207Z,52.70
2019-03-23T17:58:04.556Z,50.60
2019-03-23T18:00:35.617Z,51.20
2019-03-23T18:03:06.697Z,53.20
2019-03-23T18:05:40.465Z,52.20
2019-03-23T18:08:11.243Z,52.00
2019-03-23T18:10:42.225Z,52.70
2019-03-23T18:13:16.720Z,47.90
2019-03-23T18:15:45.767Z,49.00
2019-03-23T18:18:18.350Z,51.00
2019-03-23T18:20:49.716Z,52.10
2019-03-23T18:23:20.522Z,49.70
2019-03-23T18:25:51.523Z,49.60
2019-03-23T18:28:22.716Z,50.60
2019-03-23T18:30:53.725Z,51.80
2019-03-23T18:33:24.612Z,51.30
2019-03-23T18:35:55.638Z,52.60
2019-03-23T18:38:26.709Z,51.20
2019-03-23T18:41:00.799Z,51.50
2019-03-23T18:43:33.669Z,54.20
2019-03-23T18:46:04.323Z,52.30
2019-03-23T18:48:37.719Z,51.10
2019-03-23T18:51:08.963Z,54.10
2019-03-23T18:53:39.944Z,52.50
2019-03-23T18:56:10.917Z,51.40
2019-03-23T18:58:41.917Z,50.60
2019-03-23T19:01:13.393Z,51.30
2019-03-23T19:03:44.727Z,55.00
2019-03-23T19:06:15.784Z,53.60
2019-03-23T19:08:46.690Z,54.30
2019-03-23T19:11:17.599Z,54.90
2019-03-23T19:13:48.536Z,51.80
2019-03-23T19:16:19.327Z,57.00
2019-03-23T19:18:50.642Z,56.90
2019-03-23T19:21:21.741Z,57.30
2019-03-23T19:23:52.875Z,56.00
2019-03-23T19:26:23.767Z,53.30
2019-03-23T19:28:54.751Z,53.60
2019-03-23T19:31:26.594Z,52.80
2019-03-23T19:33:57.619Z,53.20
2019-03-23T19:36:28.920Z,53.40
2019-03-23T19:39:01.406Z,55.10
2019-03-23T19:41:32.446Z,55.30
2019-03-23T19:44:05.184Z,55.80
2019-03-23T19:46:36.166Z,56.40
2019-03-23T19:49:07.168Z,57.20
2019-03-23T19:51:37.999Z,54.70
2019-03-23T19:54:10.220Z,58.20
2019-03-23T19:56:41.423Z,55.80
2019-03-23T19:59:12.199Z,55.70
2019-03-23T20:01:43.192Z,56.10
2019-03-23T20:04:14.455Z,54.40
2019-03-23T20:06:45.644Z,56.80
2019-03-23T20:09:16.579Z,57.30
2019-03-23T20:11:47.771Z,58.00
2019-03-23T20:14:18.855Z,55.10
2019-03-23T20:16:50.000Z,56.40
2019-03-23T20:19:20.944Z,57.30
2019-03-23T20:21:51.912Z,55.60
2019-03-23T20:24:23.064Z,55.50
2019-03-23T20:26:55.817Z,58.50
2019-03-23T20:29:26.721Z,57.50
2019-03-23T20:31:57.651Z,56.70
2019-03-23T20:34:28.651Z,56.30
2019-03-23T20:36:59.599Z,56.70
2019-03-23T20:39:30.652Z,56.20
2019-03-23T20:42:01.909Z,56.30
2019-03-23T20:44:32.871Z,56.50
2019-03-23T20:47:03.876Z,54.30
2019-03-23T20:49:34.925Z,58.60
2019-03-23T20:52:05.955Z,56.70
2019-03-23T20:54:37.057Z,56.60
2019-03-23T20:57:08.148Z,58.00
2019-03-23T20:59:39.270Z,60.20
2019-03-23T21:02:10.159Z,59.10
2019-03-23T21:04:41.085Z,59.60
2019-03-23T21:07:12.222Z,59.30
2019-03-23T21:09:43.339Z,59.30
2019-03-23T21:12:18.189Z,58.90
2019-03-23T21:14:49.295Z,57.50
2019-03-23T21:17:20.408Z,58.80
2019-03-23T21:19:51.300Z,59.10
2019-03-23T21:22:22.353Z,57.90
2019-03-23T21:24:53.491Z,59.10
2019-03-23T21:27:24.484Z,55.80
2019-03-23T21:29:55.361Z,58.60
2019-03-23T21:32:26.424Z,57.40
2019-03-23T21:34:57.294Z,61.10
2019-03-23T21:37:28.234Z,62.80
2019-03-23T21:39:59.314Z,58.50
2019-03-23T21:42:30.440Z,59.30
2019-03-23T21:45:01.119Z,62.30
2019-03-23T21:47:32.375Z,59.20
2019-03-23T21:50:03.463Z,61.10
2019-03-23T21:52:34.537Z,59.40
2019-03-23T21:55:06.234Z,57.80
2019-03-23T21:57:37.467Z,61.00
2019-03-23T22:00:09.558Z,60.70
2019-03-23T22:02:40.527Z,59.60
2019-03-23T22:05:12.090Z,62.10
2019-03-23T22:07:43.102Z,61.10
2019-03-23T22:10:14.475Z,62.40
2019-03-23T22:12:45.372Z,58.20
2019-03-23T22:15:16.632Z,61.20
2019-03-23T22:17:47.864Z,61.30
2019-03-23T22:20:18.699Z,61.60
2019-03-23T22:22:50.524Z,62.80
2019-03-23T22:25:21.581Z,58.10
2019-03-23T22:27:52.573Z,62.00
2019-03-23T22:30:23.530Z,61.60
2019-03-23T22:32:54.728Z,60.10
2019-03-23T22:35:25.715Z,62.80
2019-03-23T22:37:56.884Z,58.60
2019-03-23T22:40:28.307Z,60.40
2019-03-23T22:43:02.047Z,57.90
2019-03-23T22:45:33.035Z,59.40
2019-03-23T22:48:05.047Z,59.50
2019-03-23T22:50:36.596Z,62.00
2019-03-23T22:53:07.585Z,65.10
2019-03-23T22:55:38.271Z,63.10
2019-03-23T22:58:09.308Z,65.40
2019-03-23T23:00:41.615Z,59.70
2019-03-23T23:03:12.832Z,59.40
2019-03-23T23:05:44.104Z,60.90
2019-03-23T23:08:14.864Z,63.00
2019-03-23T23:10:46.025Z,61.90
2019-03-23T23:13:17.164Z,61.10
2019-03-23T23:15:48.250Z,59.70
2019-03-23T23:18:19.404Z,61.70
2019-03-23T23:20:50.482Z,62.90
2019-03-23T23:23:21.363Z,60.60
2019-03-23T23:25:52.560Z,63.20
2019-03-23T23:28:23.543Z,61.10
2019-03-23T23:30:54.558Z,62.40
2019-03-23T23:33:25.434Z,64.20
2019-03-23T23:35:56.403Z,63.80
2019-03-23T23:38:27.656Z,63.20
2019-03-23T23:40:58.673Z,61.40
2019-03-23T23:43:29.630Z,61.00
2019-03-23T23:46:00.700Z,62.40
2019-03-23T23:48:31.735Z,64.40
2019-03-23T23:51:02.608Z,64.20
2019-03-23T23:53:33.690Z,62.10
2019-03-23T23:56:04.759Z,62.80
2019-03-23T23:58:35.843Z,66.30
